HBXND VNLK-VNLK
Flight info
| Callsign | HBXND |
|---|---|
| Flight time | 0h 52m |
| Altitude | 30000 |
| Route | MOUNT EVEREST |
| Aircraft | LAMA/L-DGOV/C |
Departure
| Time | 2026-04-13 12:39 |
|---|---|
| Airport | Tenzing-Hillary Airport (VNLK) |
Arrival
| Time | 2026-04-13 13:31 |
|---|---|
| Airport | Tenzing-Hillary Airport (VNLK) |
| Time | Latitude | Longitude | Altitude | Speed | Heading |
|---|---|---|---|---|---|
| 2026-04-13 12:30 | 27.68777 | 86.73067 | 9421 ft | 0 kts | 59° |
| 2026-04-13 12:37 | 27.68776 | 86.73067 | 9421 ft | 0 kts | 59° |
| 2026-04-13 12:37 | 27.68776 | 86.73065 | 9428 ft | 3 kts | 63° |
| 2026-04-13 12:38 | 27.68778 | 86.73014 | 9531 ft | 34 kts | 283° |
| 2026-04-13 12:38 | 27.69004 | 86.72608 | 9503 ft | 77 kts | 301° |
| 2026-04-13 12:38 | 27.69345 | 86.72017 | 9434 ft | 94 kts | 300° |
| 2026-04-13 12:38 | 27.69707 | 86.71466 | 9646 ft | 84 kts | 313° |
| 2026-04-13 12:39 | 27.70094 | 86.71099 | 9983 ft | 58 kts | 321° |
| 2026-04-13 12:39 | 27.70475 | 86.70853 | 9979 ft | 84 kts | 339° |
| 2026-04-13 12:39 | 27.71168 | 86.70868 | 9760 ft | 107 kts | 6° |
| 2026-04-13 12:39 | 27.71824 | 86.70967 | 10010 ft | 68 kts | 346° |
| 2026-04-13 12:40 | 27.72218 | 86.70570 | 9875 ft | 98 kts | 324° |
| 2026-04-13 12:40 | 27.72821 | 86.70709 | 9827 ft | 106 kts | 28° |
| 2026-04-13 12:40 | 27.73530 | 86.71115 | 9693 ft | 107 kts | 29° |
| 2026-04-13 12:40 | 27.74079 | 86.71457 | 10054 ft | 80 kts | 21° |
| 2026-04-13 12:41 | 27.74557 | 86.71799 | 10269 ft | 79 kts | 33° |
| 2026-04-13 12:41 | 27.75044 | 86.72098 | 10410 ft | 77 kts | 22° |
| 2026-04-13 12:41 | 27.75373 | 86.72241 | 10638 ft | 66 kts | 9° |
| 2026-04-13 12:48 | 27.75418 | 86.72255 | 10664 ft | 66 kts | 10° |
| 2026-04-13 12:48 | 27.75818 | 86.72400 | 10926 ft | 55 kts | 10° |
| 2026-04-13 12:48 | 27.76253 | 86.72607 | 10977 ft | 79 kts | 20° |
| 2026-04-13 12:49 | 27.76859 | 86.72783 | 10937 ft | 100 kts | 11° |
| 2026-04-13 12:49 | 27.77474 | 86.72773 | 11102 ft | 89 kts | 347° |
| 2026-04-13 12:49 | 27.78135 | 86.72800 | 11155 ft | 96 kts | 15° |
| 2026-04-13 12:49 | 27.78662 | 86.72836 | 11519 ft | 75 kts | 343° |
| 2026-04-13 12:50 | 27.79137 | 86.72677 | 11819 ft | 33 kts | 55° |
| 2026-04-13 12:50 | 27.79467 | 86.72373 | 11470 ft | 110 kts | 6° |
| 2026-04-13 12:50 | 27.79888 | 86.72795 | 11829 ft | 60 kts | 48° |
| 2026-04-13 12:50 | 27.80107 | 86.73124 | 12116 ft | 44 kts | 52° |
| 2026-04-13 12:51 | 27.80245 | 86.73431 | 12317 ft | 41 kts | 59° |
| 2026-04-13 12:51 | 27.80395 | 86.73665 | 12444 ft | 38 kts | 28° |
| 2026-04-13 12:51 | 27.80655 | 86.73811 | 12445 ft | 68 kts | 45° |
| 2026-04-13 12:51 | 27.80992 | 86.74262 | 12583 ft | 50 kts | 52° |
| 2026-04-13 12:52 | 27.81219 | 86.74524 | 12865 ft | 46 kts | 41° |
| 2026-04-13 12:52 | 27.81402 | 86.74829 | 13073 ft | 41 kts | 43° |
| 2026-04-13 12:52 | 27.81509 | 86.74989 | 13233 ft | 40 kts | 48° |
| 2026-04-13 12:52 | 27.81802 | 86.75215 | 13408 ft | 65 kts | 32° |
| 2026-04-13 12:53 | 27.82127 | 86.75636 | 13677 ft | 56 kts | 69° |
| 2026-04-13 12:53 | 27.82417 | 86.75929 | 13787 ft | 90 kts | 49° |
| 2026-04-13 12:53 | 27.82847 | 86.76458 | 13981 ft | 93 kts | 57° |
| 2026-04-13 12:53 | 27.83161 | 86.76800 | 14125 ft | 92 kts | 45° |
| 2026-04-13 12:54 | 27.83593 | 86.77251 | 14393 ft | 84 kts | 54° |
| 2026-04-13 12:54 | 27.83997 | 86.77793 | 14541 ft | 94 kts | 54° |
| 2026-04-13 12:54 | 27.84427 | 86.78393 | 14696 ft | 100 kts | 53° |
| 2026-04-13 12:54 | 27.84825 | 86.79035 | 14922 ft | 95 kts | 59° |
| 2026-04-13 12:55 | 27.85128 | 86.79653 | 15181 ft | 91 kts | 67° |
| 2026-04-13 12:55 | 27.85389 | 86.80256 | 15479 ft | 80 kts | 58° |
| 2026-04-13 12:55 | 27.85710 | 86.80842 | 15636 ft | 95 kts | 53° |
| 2026-04-13 12:55 | 27.86114 | 86.81480 | 15820 ft | 97 kts | 50° |
| 2026-04-13 12:56 | 27.86565 | 86.82043 | 16116 ft | 101 kts | 42° |
| 2026-04-13 12:56 | 27.87037 | 86.82670 | 16267 ft | 104 kts | 54° |
| 2026-04-13 12:56 | 27.87397 | 86.83269 | 16629 ft | 87 kts | 68° |
| 2026-04-13 12:56 | 27.87628 | 86.83899 | 16989 ft | 87 kts | 64° |
| 2026-04-13 12:57 | 27.87886 | 86.84596 | 17098 ft | 103 kts | 71° |
| 2026-04-13 12:57 | 27.88150 | 86.85303 | 17420 ft | 95 kts | 67° |
| 2026-04-13 12:57 | 27.88415 | 86.86035 | 17625 ft | 99 kts | 70° |
| 2026-04-13 12:57 | 27.88539 | 86.86736 | 18061 ft | 80 kts | 90° |
| 2026-04-13 12:58 | 27.88585 | 86.87325 | 18213 ft | 79 kts | 79° |
| 2026-04-13 12:58 | 27.88739 | 86.87964 | 18279 ft | 84 kts | 78° |
| 2026-04-13 12:58 | 27.88836 | 86.88547 | 18513 ft | 65 kts | 82° |
| 2026-04-13 12:58 | 27.88907 | 86.89042 | 18644 ft | 73 kts | 84° |
| 2026-04-13 12:59 | 27.88958 | 86.89666 | 18830 ft | 77 kts | 81° |
| 2026-04-13 12:59 | 27.88995 | 86.90279 | 19174 ft | 86 kts | 81° |
| 2026-04-13 12:59 | 27.88961 | 86.90980 | 19451 ft | 90 kts | 96° |
| 2026-04-13 12:59 | 27.88908 | 86.91662 | 19757 ft | 88 kts | 90° |
| 2026-04-13 13:00 | 27.88905 | 86.92359 | 20069 ft | 85 kts | 82° |
| 2026-04-13 13:00 | 27.88856 | 86.93044 | 20347 ft | 86 kts | 87° |
| 2026-04-13 13:00 | 27.88853 | 86.93745 | 20564 ft | 96 kts | 80° |
| 2026-04-13 13:00 | 27.88943 | 86.94506 | 20853 ft | 103 kts | 79° |
| 2026-04-13 13:01 | 27.89047 | 86.95328 | 21038 ft | 106 kts | 71° |
| 2026-04-13 13:01 | 27.89165 | 86.96155 | 21297 ft | 106 kts | 76° |
| 2026-04-13 13:01 | 27.89416 | 86.96824 | 21610 ft | 84 kts | 22° |
| 2026-04-13 13:01 | 27.89965 | 86.96927 | 21781 ft | 85 kts | 331° |
| 2026-04-13 13:02 | 27.90555 | 86.96722 | 21771 ft | 86 kts | 332° |
| 2026-04-13 13:02 | 27.91119 | 86.96437 | 21956 ft | 94 kts | 322° |
| 2026-04-13 13:02 | 27.91695 | 86.96116 | 22211 ft | 87 kts | 322° |
| 2026-04-13 13:02 | 27.92180 | 86.95768 | 22420 ft | 79 kts | 321° |
| 2026-04-13 13:03 | 27.92517 | 86.95582 | 22714 ft | 58 kts | 318° |
| 2026-04-13 13:04 | 27.92733 | 86.95512 | 23041 ft | 39 kts | 320° |
| 2026-04-13 13:05 | 27.93057 | 86.95501 | 23158 ft | 56 kts | 325° |
| 2026-04-13 13:05 | 27.93484 | 86.95475 | 23312 ft | 60 kts | 328° |
| 2026-04-13 13:05 | 27.93904 | 86.95391 | 23459 ft | 63 kts | 327° |
| 2026-04-13 13:05 | 27.94274 | 86.95296 | 23663 ft | 57 kts | 322° |
| 2026-04-13 13:06 | 27.94671 | 86.95233 | 23708 ft | 54 kts | 312° |
| 2026-04-13 13:06 | 27.94885 | 86.95104 | 23686 ft | 22 kts | 267° |
| 2026-04-13 13:06 | 27.94920 | 86.94883 | 23741 ft | 33 kts | 283° |
| 2026-04-13 13:06 | 27.95025 | 86.94583 | 23946 ft | 51 kts | 289° |
| 2026-04-13 13:07 | 27.95181 | 86.94192 | 24110 ft | 54 kts | 296° |
| 2026-04-13 13:07 | 27.95377 | 86.93904 | 24266 ft | 42 kts | 291° |
| 2026-04-13 13:07 | 27.95521 | 86.93674 | 24404 ft | 28 kts | 286° |
| 2026-04-13 13:07 | 27.95608 | 86.93515 | 24613 ft | 21 kts | 283° |
| 2026-04-13 13:08 | 27.95651 | 86.93340 | 24694 ft | 15 kts | 270° |
| 2026-04-13 13:08 | 27.95683 | 86.93230 | 24670 ft | 21 kts | 274° |
| 2026-04-13 13:08 | 27.95705 | 86.93109 | 24737 ft | 11 kts | 271° |
| 2026-04-13 13:08 | 27.95748 | 86.93007 | 24833 ft | 20 kts | 281° |
| 2026-04-13 13:09 | 27.95802 | 86.92889 | 24935 ft | 16 kts | 279° |
| 2026-04-13 13:09 | 27.95822 | 86.92821 | 24966 ft | 11 kts | 251° |
| 2026-04-13 13:09 | 27.95718 | 86.92707 | 24838 ft | 30 kts | 243° |
| 2026-04-13 13:09 | 27.95667 | 86.92482 | 24687 ft | 29 kts | 263° |
| 2026-04-13 13:10 | 27.95716 | 86.92358 | 24658 ft | 5 kts | 265° |
| 2026-04-13 13:10 | 27.95541 | 86.92388 | 24502 ft | 58 kts | 177° |
| 2026-04-13 13:10 | 27.95276 | 86.92970 | 24423 ft | 105 kts | 111° |
| 2026-04-13 13:10 | 27.94907 | 86.93716 | 24376 ft | 112 kts | 123° |
| 2026-04-13 13:11 | 27.94470 | 86.94504 | 24380 ft | 123 kts | 127° |
| 2026-04-13 13:11 | 27.94039 | 86.95274 | 24439 ft | 110 kts | 126° |
| 2026-04-13 13:11 | 27.93602 | 86.95991 | 24336 ft | 113 kts | 140° |
| 2026-04-13 13:11 | 27.93061 | 86.96567 | 24249 ft | 108 kts | 148° |
| 2026-04-13 13:12 | 27.92469 | 86.97180 | 24065 ft | 122 kts | 157° |
| 2026-04-13 13:12 | 27.91714 | 86.97661 | 24063 ft | 125 kts | 171° |
| 2026-04-13 13:12 | 27.90818 | 86.97710 | 23505 ft | 134 kts | 210° |
| 2026-04-13 13:12 | 27.90034 | 86.97327 | 23320 ft | 111 kts | 228° |
| 2026-04-13 13:13 | 27.89524 | 86.96806 | 23240 ft | 95 kts | 259° |
| 2026-04-13 13:13 | 27.89426 | 86.95985 | 22770 ft | 115 kts | 269° |
| 2026-04-13 13:13 | 27.89339 | 86.95132 | 22631 ft | 107 kts | 268° |
| 2026-04-13 13:13 | 27.89304 | 86.94337 | 22531 ft | 93 kts | 288° |
| 2026-04-13 13:14 | 27.89626 | 86.93722 | 22421 ft | 90 kts | 298° |
| 2026-04-13 13:14 | 27.89855 | 86.93381 | 22333 ft | 90 kts | 306° |
| 2026-04-13 13:14 | 27.90260 | 86.93058 | 22243 ft | 90 kts | 320° |
| 2026-04-13 13:15 | 27.90811 | 86.92737 | 22118 ft | 83 kts | 316° |
| 2026-04-13 13:15 | 27.91354 | 86.92413 | 21883 ft | 110 kts | 351° |
| 2026-04-13 13:15 | 27.91971 | 86.93114 | 21584 ft | 151 kts | 69° |
| 2026-04-13 13:15 | 27.91875 | 86.94267 | 21424 ft | 147 kts | 114° |
| 2026-04-13 13:16 | 27.91384 | 86.95232 | 21266 ft | 137 kts | 129° |
| 2026-04-13 13:16 | 27.90808 | 86.96114 | 21186 ft | 141 kts | 139° |
| 2026-04-13 13:16 | 27.89936 | 86.96637 | 20964 ft | 153 kts | 168° |
| 2026-04-13 13:16 | 27.88860 | 86.97208 | 20370 ft | 174 kts | 164° |
| 2026-04-13 13:17 | 27.88160 | 86.97004 | 20915 ft | 99 kts | 249° |
| 2026-04-13 13:17 | 27.87868 | 86.96135 | 20485 ft | 126 kts | 253° |
| 2026-04-13 13:17 | 27.88031 | 86.95269 | 20235 ft | 110 kts | 333° |
| 2026-04-13 13:17 | 27.88559 | 86.95688 | 20211 ft | 124 kts | 71° |
| 2026-04-13 13:18 | 27.88935 | 86.96353 | 20058 ft | 95 kts | 347° |
| 2026-04-13 13:18 | 27.89364 | 86.95773 | 19349 ft | 120 kts | 293° |
| 2026-04-13 13:18 | 27.89601 | 86.94737 | 18133 ft | 150 kts | 281° |
| 2026-04-13 13:18 | 27.89852 | 86.93582 | 17445 ft | 151 kts | 281° |
| 2026-04-13 13:19 | 27.90019 | 86.92416 | 16563 ft | 155 kts | 276° |
| 2026-04-13 13:19 | 27.90158 | 86.91280 | 16314 ft | 133 kts | 274° |
| 2026-04-13 13:19 | 27.90259 | 86.90392 | 16390 ft | 94 kts | 277° |
| 2026-04-13 13:19 | 27.90320 | 86.89666 | 16267 ft | 90 kts | 266° |
| 2026-04-13 13:20 | 27.90279 | 86.88971 | 16139 ft | 94 kts | 269° |
| 2026-04-13 13:20 | 27.90218 | 86.88161 | 15889 ft | 113 kts | 262° |
| 2026-04-13 13:20 | 27.90082 | 86.87273 | 15810 ft | 109 kts | 257° |
| 2026-04-13 13:20 | 27.90073 | 86.86425 | 15785 ft | 108 kts | 269° |
| 2026-04-13 13:21 | 27.89950 | 86.85600 | 15720 ft | 111 kts | 252° |
| 2026-04-13 13:21 | 27.89697 | 86.84758 | 15647 ft | 111 kts | 248° |
| 2026-04-13 13:21 | 27.89390 | 86.83949 | 15568 ft | 114 kts | 246° |
| 2026-04-13 13:21 | 27.89224 | 86.83080 | 15547 ft | 110 kts | 253° |
| 2026-04-13 13:22 | 27.88909 | 86.82259 | 15347 ft | 124 kts | 240° |
| 2026-04-13 13:22 | 27.88455 | 86.81474 | 15348 ft | 112 kts | 227° |
| 2026-04-13 13:22 | 27.87898 | 86.80915 | 15390 ft | 104 kts | 217° |
| 2026-04-13 13:22 | 27.87349 | 86.80448 | 15432 ft | 95 kts | 202° |
| 2026-04-13 13:23 | 27.86735 | 86.80106 | 15389 ft | 104 kts | 210° |
| 2026-04-13 13:23 | 27.86087 | 86.79644 | 15231 ft | 117 kts | 226° |
| 2026-04-13 13:23 | 27.85693 | 86.78668 | 14635 ft | 141 kts | 236° |
| 2026-04-13 13:23 | 27.85292 | 86.77877 | 14964 ft | 103 kts | 230° |
| 2026-04-13 13:24 | 27.84855 | 86.77217 | 14954 ft | 107 kts | 233° |
| 2026-04-13 13:24 | 27.84453 | 86.76455 | 14703 ft | 127 kts | 251° |
| 2026-04-13 13:24 | 27.84132 | 86.75659 | 14769 ft | 99 kts | 242° |
| 2026-04-13 13:24 | 27.83822 | 86.74934 | 14407 ft | 107 kts | 248° |
| 2026-04-13 13:25 | 27.83377 | 86.74193 | 13853 ft | 124 kts | 221° |
| 2026-04-13 13:25 | 27.82605 | 86.73654 | 13226 ft | 131 kts | 205° |
| 2026-04-13 13:25 | 27.81316 | 86.72692 | 12877 ft | 100 kts | 219° |
| 2026-04-13 13:26 | 27.80692 | 86.72255 | 12524 ft | 109 kts | 205° |
| 2026-04-13 13:26 | 27.79997 | 86.71806 | 12018 ft | 126 kts | 210° |
| 2026-04-13 13:26 | 27.79181 | 86.71406 | 11642 ft | 120 kts | 195° |
| 2026-04-13 13:26 | 27.78458 | 86.71194 | 11597 ft | 93 kts | 183° |
| 2026-04-13 13:27 | 27.77904 | 86.71335 | 11581 ft | 71 kts | 158° |
| 2026-04-13 13:27 | 27.77496 | 86.71363 | 11599 ft | 48 kts | 189° |
| 2026-04-13 13:27 | 27.77188 | 86.71422 | 11488 ft | 65 kts | 172° |
| 2026-04-13 13:27 | 27.76608 | 86.71508 | 11300 ft | 96 kts | 176° |
| 2026-04-13 13:28 | 27.75936 | 86.71583 | 11283 ft | 97 kts | 174° |
| 2026-04-13 13:28 | 27.75188 | 86.71650 | 11017 ft | 118 kts | 179° |
| 2026-04-13 13:28 | 27.74345 | 86.71544 | 10810 ft | 122 kts | 189° |
| 2026-04-13 13:28 | 27.73548 | 86.71388 | 10936 ft | 110 kts | 193° |
| 2026-04-13 13:29 | 27.72800 | 86.71292 | 11097 ft | 107 kts | 184° |
| 2026-04-13 13:29 | 27.72026 | 86.71274 | 11089 ft | 118 kts | 180° |
| 2026-04-13 13:29 | 27.71207 | 86.71466 | 10888 ft | 132 kts | 158° |
| 2026-04-13 13:29 | 27.70355 | 86.71902 | 10687 ft | 136 kts | 157° |
| 2026-04-13 13:30 | 27.69572 | 86.72363 | 10623 ft | 119 kts | 154° |
| 2026-04-13 13:30 | 27.68900 | 86.72826 | 10488 ft | 97 kts | 160° |
| 2026-04-13 13:30 | 27.68397 | 86.73081 | 10491 ft | 82 kts | 162° |
| 2026-04-13 13:30 | 27.67753 | 86.73433 | 9893 ft | 122 kts | 152° |
| 2026-04-13 13:31 | 27.67270 | 86.73518 | 10053 ft | 54 kts | 242° |
| 2026-04-13 13:31 | 27.67026 | 86.73112 | 9907 ft | 57 kts | 236° |
| 2026-04-13 13:31 | 27.66821 | 86.72957 | 9939 ft | 30 kts | 207° |
| 2026-04-13 13:31 | 27.66839 | 86.72544 | 9565 ft | 82 kts | 306° |
| 2026-04-13 13:32 | 27.67384 | 86.72201 | 9239 ft | 89 kts | 1° |
| 2026-04-13 13:32 | 27.67812 | 86.72126 | 9439 ft | 41 kts | 342° |
| 2026-04-13 13:32 | 27.67995 | 86.71998 | 9416 ft | 24 kts | 359° |
| 2026-04-13 13:32 | 27.68306 | 86.72143 | 9187 ft | 72 kts | 44° |
| 2026-04-13 13:33 | 27.68500 | 86.72613 | 9246 ft | 45 kts | 58° |
| 2026-04-13 13:33 | 27.68592 | 86.72758 | 9270 ft | 13 kts | 49° |
| 2026-04-13 13:33 | 27.68635 | 86.72861 | 9323 ft | 13 kts | 61° |
| 2026-04-13 13:33 | 27.68664 | 86.72925 | 9357 ft | 8 kts | 64° |
| 2026-04-13 13:34 | 27.68696 | 86.72976 | 9389 ft | 5 kts | 76° |
| 2026-04-13 13:34 | 27.68718 | 86.73020 | 9413 ft | 1 kts | 64° |
| 2026-04-13 13:34 | 27.68732 | 86.73048 | 9433 ft | 5 kts | 60° |
| 2026-04-13 13:34 | 27.68761 | 86.73054 | 9451 ft | 4 kts | 45° |
| 2026-04-13 13:35 | 27.68773 | 86.73063 | 9441 ft | 2 kts | 58° |
| 2026-04-13 13:35 | 27.68776 | 86.73070 | 9438 ft | 0 kts | 62° |